createdAt,value
2019-02-16T11:16:01.214Z,102068.78
2019-02-16T11:21:42.658Z,102072.94
2019-02-16T11:27:12.237Z,102064.30
2019-02-16T11:32:57.540Z,102065.35
2019-02-16T11:38:45.763Z,102072.86
2019-02-16T11:44:19.597Z,102073.80
2019-02-16T11:50:09.521Z,102067.08
2019-02-16T11:55:52.143Z,102067.58
2019-02-16T12:01:27.775Z,102060.83
2019-02-16T12:07:23.461Z,102058.38
2019-02-16T12:13:09.795Z,102051.00
2019-02-16T12:18:52.888Z,102045.38
2019-02-16T12:24:29.004Z,102040.73
2019-02-16T12:30:07.325Z,102032.36
2019-02-16T12:35:38.183Z,102040.37
2019-02-16T12:41:26.012Z,102037.77
2019-02-16T12:47:12.824Z,102039.55
2019-02-16T12:52:54.047Z,102022.39
2019-02-16T12:58:27.764Z,102016.05
2019-02-16T13:04:05.900Z,102013.72
2019-02-16T13:09:48.597Z,102013.72
2019-02-16T13:15:22.071Z,102003.52
2019-02-16T13:21:04.677Z,102014.88
2019-02-16T13:26:50.592Z,102017.00
2019-02-16T13:32:45.801Z,102009.14
2019-02-16T13:38:21.519Z,102011.95
2019-02-16T13:43:53.686Z,102000.27
2019-02-16T13:49:24.133Z,101988.42
2019-02-16T13:55:11.274Z,101986.46
2019-02-16T14:00:43.524Z,101970.55
2019-02-16T14:06:26.757Z,101978.91
2019-02-16T14:12:08.555Z,101971.30
2019-02-16T14:18:01.122Z,101961.92
2019-02-16T14:23:25.165Z,101961.92
2019-02-16T14:28:49.944Z,101948.56
2019-02-16T14:34:13.558Z,101948.56
2019-02-16T14:39:38.707Z,101952.34
2019-02-16T14:45:02.614Z,101947.88
2019-02-16T14:50:26.912Z,101939.09
2019-02-16T14:55:54.246Z,101951.36
2019-02-16T15:01:17.372Z,101938.98
2019-02-16T15:06:41.266Z,101942.40
2019-02-16T15:12:06.190Z,101937.27
2019-02-16T15:17:30.680Z,101934.51
2019-02-16T15:22:54.332Z,101936.31
2019-02-16T15:28:18.153Z,101934.73
2019-02-16T15:33:42.328Z,101936.07
2019-02-16T15:39:07.691Z,101933.42
2019-02-16T15:44:32.119Z,101928.11
2019-02-16T15:49:56.843Z,101914.56
2019-02-16T15:55:20.767Z,101920.66
2019-02-16T16:00:45.423Z,101914.40
2019-02-16T16:06:10.777Z,101912.06
2019-02-16T16:11:48.840Z,101917.67
2019-02-16T16:17:20.193Z,101914.14
2019-02-16T16:22:57.165Z,101910.38
2019-02-16T16:28:35.712Z,101911.79
2019-02-16T16:34:22.572Z,101908.91
2019-02-16T16:40:12.344Z,101912.30
2019-02-16T16:46:10.738Z,101923.55
2019-02-16T16:51:44.822Z,101928.41
2019-02-16T16:57:14.859Z,101929.27
2019-02-16T17:02:48.767Z,101935.25
2019-02-16T17:08:35.983Z,101938.66
2019-02-16T17:14:10.215Z,101934.69
2019-02-16T17:19:56.817Z,101940.14
2019-02-16T17:25:39.337Z,101940.62
2019-02-16T17:31:25.880Z,101948.76
2019-02-16T17:37:15.292Z,101941.13
2019-02-16T17:42:51.651Z,101933.81
2019-02-16T17:48:28.648Z,101946.16
2019-02-16T17:54:10.071Z,101948.54
2019-02-16T17:59:39.604Z,101949.08
2019-02-16T18:11:45.560Z,101949.69
2019-02-16T18:17:28.352Z,101941.09
2019-02-16T18:38:20.918Z,101951.31
2019-02-16T18:44:02.626Z,101954.11
2019-02-16T18:49:37.978Z,101955.17
2019-02-16T18:55:11.401Z,101956.94
2019-02-16T19:00:45.403Z,101965.92
2019-02-16T19:06:24.937Z,101973.55
2019-02-16T19:12:07.673Z,101972.69
2019-02-16T19:17:40.332Z,101967.52
2019-02-16T19:23:19.466Z,101966.83
2019-02-16T19:29:06.388Z,101971.39
2019-02-16T19:34:41.450Z,101966.65
2019-02-16T19:40:17.972Z,101963.23
2019-02-16T19:46:09.965Z,101959.06
2019-02-16T19:51:58.952Z,101959.02
2019-02-16T19:57:40.822Z,101952.43
2019-02-16T20:03:20.824Z,101961.45
2019-02-16T20:09:12.925Z,101951.81
2019-02-16T20:14:41.947Z,101958.76
2019-02-16T20:20:22.474Z,101955.54
2019-02-16T20:26:03.935Z,101953.66
2019-02-16T20:31:46.211Z,101956.44
2019-02-16T20:37:28.272Z,101962.87
2019-02-16T20:42:58.001Z,101969.00
2019-02-16T20:48:37.541Z,101970.48
2019-02-16T20:54:27.148Z,101966.86
2019-02-16T21:00:09.690Z,101967.22
2019-02-16T21:05:51.572Z,101969.94
2019-02-16T21:11:23.484Z,101967.56
2019-02-16T21:17:06.069Z,101960.08
2019-02-16T21:22:59.208Z,101962.14
2019-02-16T21:28:40.815Z,101965.89
2019-02-16T21:34:09.159Z,101968.95
2019-02-16T21:39:49.069Z,101974.47
2019-02-16T21:45:47.605Z,101975.70
2019-02-16T21:51:30.046Z,101977.27
2019-02-16T21:57:02.145Z,101977.36
2019-02-16T22:02:42.832Z,101977.80
2019-02-16T22:08:16.046Z,101983.93
2019-02-16T22:13:39.910Z,101984.34
2019-02-16T22:19:03.704Z,101989.22
2019-02-16T22:24:28.769Z,101992.50
2019-02-16T22:29:52.357Z,101987.88
2019-02-16T22:35:16.105Z,101986.86
2019-02-16T22:40:40.731Z,101993.80
2019-02-16T22:46:04.361Z,101990.56
2019-02-16T22:51:28.297Z,101991.83
2019-02-16T22:56:52.932Z,101995.59
2019-02-16T23:02:18.515Z,101995.94
2019-02-16T23:07:43.355Z,102000.77
2019-02-16T23:13:08.334Z,102003.13
2019-02-16T23:18:33.813Z,102011.64
2019-02-16T23:23:58.668Z,102019.75
2019-02-16T23:29:24.439Z,102019.80
2019-02-16T23:34:48.321Z,102013.66
2019-02-16T23:40:13.141Z,102021.89
2019-02-16T23:45:37.395Z,102019.27
2019-02-16T23:51:02.271Z,102026.03
2019-02-16T23:56:26.129Z,102027.12
